createdAt,value
2022-11-05T00:00:10.182Z,99715.16
2022-11-05T00:02:56.329Z,99727.34
2022-11-05T00:05:41.801Z,99727.44
2022-11-05T00:08:27.310Z,99720.75
2022-11-05T00:10:54.628Z,99732.25
2022-11-05T00:13:40.200Z,99733.13
2022-11-05T00:16:42.375Z,99727.91
2022-11-05T00:19:10.234Z,99723.72
2022-11-05T00:21:57.171Z,99741.28
2022-11-05T00:24:43.198Z,99734.31
2022-11-05T00:27:10.231Z,99735.25
2022-11-05T00:29:37.127Z,99753.00
2022-11-05T00:32:04.156Z,99735.75
2022-11-05T00:34:30.982Z,99747.03
2022-11-05T00:36:57.800Z,99748.87
2022-11-05T00:39:25.056Z,99755.22
2022-11-05T00:42:11.758Z,99747.41
2022-11-05T00:44:57.037Z,99735.41
2022-11-05T00:47:42.575Z,99745.03
2022-11-05T00:50:10.875Z,99745.16
2022-11-05T00:52:56.829Z,99752.28
2022-11-05T00:55:28.571Z,99740.97
2022-11-05T00:57:56.341Z,99741.03
2022-11-05T01:00:25.020Z,99724.66
2022-11-05T01:02:52.013Z,99722.12
2022-11-05T01:05:19.640Z,99729.09
2022-11-05T01:07:46.505Z,99735.28
2022-11-05T01:10:13.566Z,99711.91
2022-11-05T01:12:40.436Z,99706.63
2022-11-05T01:15:07.898Z,99709.25
2022-11-05T01:17:34.729Z,99726.78
2022-11-05T01:20:02.165Z,99726.03
2022-11-05T01:22:29.080Z,99736.63
2022-11-05T01:24:55.812Z,99734.03
2022-11-05T01:27:22.789Z,99729.78
2022-11-05T01:29:50.114Z,99731.44
2022-11-05T01:32:16.950Z,99747.25
2022-11-05T01:34:43.686Z,99744.66
2022-11-05T01:37:10.661Z,99735.91
2022-11-05T01:39:37.627Z,99741.28
2022-11-05T01:42:13.774Z,99723.03
2022-11-05T01:44:55.576Z,99748.38
2022-11-05T01:47:38.892Z,99730.06
2022-11-05T01:50:17.563Z,99736.19
2022-11-05T01:52:44.551Z,99728.38
2022-11-05T01:55:13.573Z,99731.12
2022-11-05T01:57:40.978Z,99722.31
2022-11-05T02:00:08.584Z,99709.19
2022-11-05T02:02:35.555Z,99710.09
2022-11-05T02:05:06.678Z,99696.25
2022-11-05T02:07:34.049Z,99711.03
2022-11-05T02:10:06.035Z,99700.59
2022-11-05T02:12:34.409Z,99718.03
2022-11-05T02:15:01.231Z,99718.94
2022-11-05T02:17:27.966Z,99717.13
2022-11-05T02:20:12.727Z,99729.50
2022-11-05T02:22:48.901Z,99730.28
2022-11-05T02:25:42.888Z,99748.78
2022-11-05T02:28:25.147Z,99749.63
2022-11-05T02:31:08.564Z,99755.84
2022-11-05T02:33:59.252Z,99759.34
2022-11-05T02:36:40.017Z,99748.81
2022-11-05T02:39:22.124Z,99750.59
2022-11-05T02:42:02.066Z,99746.19
2022-11-05T02:45:09.924Z,99741.87
2022-11-05T02:47:47.725Z,99744.50
2022-11-05T02:50:24.154Z,99751.56
2022-11-05T02:53:02.968Z,99760.41
2022-11-05T02:55:47.009Z,99771.78
2022-11-05T02:58:13.818Z,99760.53
2022-11-05T03:00:54.267Z,99758.75
2022-11-05T03:03:23.919Z,99770.06
2022-11-05T03:06:01.338Z,99774.44
2022-11-05T03:08:43.312Z,99766.66
2022-11-05T03:11:16.763Z,99776.34
2022-11-05T03:13:46.365Z,99771.09
2022-11-05T03:16:20.097Z,99771.97
2022-11-05T03:18:58.676Z,99777.28
2022-11-05T03:21:51.383Z,99779.06
2022-11-05T03:24:20.634Z,99752.03
2022-11-05T03:26:47.463Z,99779.09
2022-11-05T03:29:33.132Z,99779.09
2022-11-05T03:32:03.239Z,99776.53
2022-11-05T03:34:36.666Z,99779.97
2022-11-05T03:37:05.355Z,99783.47
2022-11-05T03:39:38.272Z,99779.16
2022-11-05T03:42:08.160Z,99770.53
2022-11-05T03:44:38.797Z,99785.41
2022-11-05T03:47:18.037Z,99755.69
2022-11-05T03:50:14.302Z,99774.75
2022-11-05T03:52:47.756Z,99777.47
2022-11-05T03:55:15.244Z,99781.00
2022-11-05T03:57:47.246Z,99794.19
2022-11-05T04:00:14.446Z,99796.84
2022-11-05T04:02:41.847Z,99786.47
2022-11-05T04:05:08.786Z,99800.41
2022-11-05T04:07:54.231Z,99799.53
2022-11-05T04:10:46.966Z,99748.81
2022-11-05T04:13:25.949Z,99808.28
2022-11-05T04:16:13.037Z,99807.34
2022-11-05T04:18:40.446Z,99805.59
2022-11-05T04:21:27.910Z,99802.94
2022-11-05T04:24:10.394Z,99799.38
2022-11-05T04:26:44.595Z,99797.66
2022-11-05T04:29:30.374Z,99791.50
2022-11-05T04:31:57.222Z,99797.66
2022-11-05T04:34:24.188Z,99795.16
2022-11-05T04:36:53.204Z,99793.28
2022-11-05T04:39:20.807Z,99801.31
2022-11-05T04:41:48.768Z,99789.06
2022-11-05T04:44:16.874Z,99795.97
2022-11-05T04:46:43.814Z,99789.00
2022-11-05T04:49:10.642Z,99777.53
2022-11-05T04:51:37.473Z,99779.31
2022-11-05T04:54:04.320Z,99765.44
2022-11-05T04:56:31.332Z,99775.03
2022-11-05T04:58:58.105Z,99780.25
2022-11-05T05:01:25.651Z,99782.00
2022-11-05T05:03:54.091Z,99788.19
2022-11-05T05:06:21.947Z,99765.56
2022-11-05T05:08:50.586Z,99784.72
2022-11-05T05:11:20.461Z,99794.41
2022-11-05T05:13:47.721Z,99800.53
2022-11-05T05:16:23.776Z,99789.25
2022-11-05T05:18:51.473Z,99797.03
2022-11-05T05:21:38.625Z,99783.97
2022-11-05T05:24:13.578Z,99811.97
2022-11-05T05:26:43.300Z,99805.72
2022-11-05T05:29:10.923Z,99800.63
2022-11-05T05:31:38.228Z,99816.28
2022-11-05T05:34:06.556Z,99822.44
2022-11-05T05:36:34.052Z,99811.88
2022-11-05T05:39:00.875Z,99787.47
2022-11-05T05:41:27.703Z,99812.69
2022-11-05T05:43:54.497Z,99805.88
2022-11-05T05:46:21.294Z,99822.44
2022-11-05T05:48:50.168Z,99831.31
2022-11-05T05:51:17.771Z,99832.19
2022-11-05T05:53:44.939Z,99825.22
2022-11-05T05:56:14.842Z,99823.56
2022-11-05T05:58:41.676Z,99811.28
2022-11-05T06:01:17.300Z,99823.47
2022-11-05T06:03:45.630Z,99829.62
2022-11-05T06:06:13.465Z,99819.19
2022-11-05T06:08:41.212Z,99841.94
2022-11-05T06:11:09.082Z,99854.28
2022-11-05T06:13:36.347Z,99863.13
2022-11-05T06:16:05.849Z,99871.91
2022-11-05T06:18:33.558Z,99873.63
2022-11-05T06:21:09.128Z,99877.13
2022-11-05T06:23:38.497Z,99880.63
2022-11-05T06:26:14.169Z,99892.97
2022-11-05T06:28:42.215Z,99889.44
2022-11-05T06:31:10.501Z,99897.31
2022-11-05T06:33:37.333Z,99892.88
2022-11-05T06:36:06.224Z,99902.50
2022-11-05T06:38:35.082Z,99892.81
2022-11-05T06:41:07.153Z,99874.44
2022-11-05T06:43:35.801Z,99895.34
2022-11-05T06:46:03.180Z,99887.53
2022-11-05T06:48:30.248Z,99898.81
2022-11-05T06:50:57.155Z,99878.69
2022-11-05T06:53:24.205Z,99869.81
2022-11-05T06:55:50.977Z,99899.59
2022-11-05T06:58:17.854Z,99904.03
2022-11-05T07:00:45.158Z,99905.69
2022-11-05T07:03:13.437Z,99894.34
2022-11-05T07:05:46.650Z,99909.97
2022-11-05T07:08:13.759Z,99916.06
2022-11-05T07:10:40.524Z,99912.47
2022-11-05T07:13:08.709Z,99911.47
2022-11-05T07:15:36.748Z,99914.03
2022-11-05T07:18:04.647Z,99916.63
2022-11-05T07:20:34.196Z,99907.72
2022-11-05T07:23:02.588Z,99903.31
2022-11-05T07:25:31.370Z,99888.25
2022-11-05T07:27:58.746Z,99890.66
2022-11-05T07:30:26.399Z,99897.41
2022-11-05T07:32:53.311Z,99904.31
2022-11-05T07:35:20.163Z,99901.66
2022-11-05T07:37:49.165Z,99901.41
2022-11-05T07:40:21.069Z,99896.22
2022-11-05T07:42:53.675Z,99907.72
2022-11-05T07:45:20.551Z,99906.91
2022-11-05T07:47:49.026Z,99891.25
2022-11-05T07:50:18.075Z,99896.25
2022-11-05T07:52:45.058Z,99895.28
2022-11-05T07:55:13.383Z,99873.50
2022-11-05T07:57:51.155Z,99893.56
2022-11-05T08:00:22.082Z,99893.47
2022-11-05T08:03:09.723Z,99898.06
2022-11-05T08:05:39.494Z,99894.44
2022-11-05T08:08:08.342Z,99894.37
2022-11-05T08:10:36.203Z,99906.59
2022-11-05T08:13:03.381Z,99902.22
2022-11-05T08:15:30.654Z,99897.72
2022-11-05T08:18:08.137Z,99882.88
2022-11-05T08:20:35.935Z,99899.28
2022-11-05T08:23:02.948Z,99894.84
2022-11-05T08:25:29.875Z,99896.50
2022-11-05T08:28:02.116Z,99893.75
2022-11-05T08:30:29.853Z,99895.50
2022-11-05T08:33:06.074Z,99899.72
2022-11-05T08:35:34.754Z,99900.44
2022-11-05T08:38:03.912Z,99893.31
2022-11-05T08:40:32.446Z,99889.72
2022-11-05T08:43:00.716Z,99886.31
2022-11-05T08:45:27.950Z,99903.53
2022-11-05T08:48:03.288Z,99885.16
2022-11-05T08:50:30.674Z,99890.91
2022-11-05T08:52:57.657Z,99888.91
2022-11-05T08:55:24.760Z,99901.19
2022-11-05T08:57:56.561Z,99906.31
2022-11-05T09:00:23.981Z,99899.16
2022-11-05T09:02:51.087Z,99895.44
2022-11-05T09:05:17.939Z,99906.84
2022-11-05T09:07:46.664Z,99907.63
2022-11-05T09:10:13.501Z,99903.53
2022-11-05T09:12:40.611Z,99903.00
2022-11-05T09:15:07.860Z,99915.44
2022-11-05T09:17:34.718Z,99916.94
2022-11-05T09:20:03.595Z,99902.19
2022-11-05T09:22:30.929Z,99909.97
2022-11-05T09:24:57.725Z,99923.66
2022-11-05T09:27:24.517Z,99932.69
2022-11-05T09:29:51.734Z,99937.94
2022-11-05T09:32:19.412Z,99941.44
2022-11-05T09:34:48.555Z,99943.94
2022-11-05T09:37:15.797Z,99945.53
2022-11-05T09:39:42.593Z,99951.44
2022-11-05T09:42:12.613Z,99956.81
2022-11-05T09:45:00.746Z,99955.75
2022-11-05T09:47:42.624Z,99946.84
2022-11-05T09:50:17.452Z,99946.03
2022-11-05T09:52:44.835Z,99947.84
2022-11-05T09:55:21.963Z,99954.87
2022-11-05T09:57:57.426Z,99947.91
2022-11-05T10:00:24.554Z,99936.41
2022-11-05T10:02:59.172Z,99947.69
2022-11-05T10:05:27.518Z,99939.72
2022-11-05T10:08:17.004Z,99936.94
2022-11-05T10:10:49.125Z,99933.13
2022-11-05T10:13:22.222Z,99933.88
2022-11-05T10:16:02.514Z,99927.59
2022-11-05T10:18:39.650Z,99931.00
2022-11-05T10:21:17.023Z,99926.22
2022-11-05T10:23:45.450Z,99932.50
2022-11-05T10:26:17.293Z,99926.16
2022-11-05T10:28:47.633Z,99927.34
2022-11-05T10:31:21.214Z,99946.06
2022-11-05T10:33:51.985Z,99940.47
2022-11-05T10:36:32.141Z,99926.44
2022-11-05T10:39:06.709Z,99933.66
2022-11-05T10:41:39.498Z,99930.97
2022-11-05T10:44:19.091Z,99924.75
2022-11-05T10:47:06.883Z,99922.66
2022-11-05T10:49:59.861Z,99920.19
2022-11-05T10:52:39.505Z,99909.16
2022-11-05T10:55:21.676Z,99909.87
2022-11-05T10:57:51.494Z,99899.50
2022-11-05T11:00:23.686Z,99915.19
2022-11-05T11:02:54.208Z,99927.81
2022-11-05T11:05:26.945Z,99932.44
2022-11-05T11:08:21.795Z,99936.84
2022-11-05T11:10:58.191Z,99937.53
2022-11-05T11:13:28.353Z,99928.38
2022-11-05T11:16:12.944Z,99934.41
2022-11-05T11:18:42.619Z,99913.59
2022-11-05T11:21:20.242Z,99934.22
2022-11-05T11:23:58.827Z,99935.94
2022-11-05T11:26:28.873Z,99950.47
2022-11-05T11:29:12.515Z,99958.41
2022-11-05T11:31:40.138Z,99958.38
2022-11-05T11:34:18.707Z,99950.94
2022-11-05T11:36:48.163Z,99950.34
2022-11-05T11:39:19.725Z,99947.47
2022-11-05T11:41:52.340Z,99944.81
2022-11-05T11:44:27.310Z,99944.75
2022-11-05T11:47:05.079Z,99950.91
2022-11-05T11:49:51.255Z,99944.53
2022-11-05T11:52:30.488Z,99940.72
2022-11-05T11:55:18.518Z,99949.78
2022-11-05T11:57:49.152Z,99956.22
2022-11-05T12:00:18.238Z,99956.41
2022-11-05T12:03:06.393Z,99955.00
2022-11-05T12:05:42.475Z,99955.75
2022-11-05T12:08:59.373Z,99950.50
2022-11-05T12:11:35.008Z,99947.37
2022-11-05T12:14:10.195Z,99958.44
2022-11-05T12:17:11.964Z,99960.19
2022-11-05T12:20:02.101Z,99969.78
2022-11-05T12:23:15.426Z,99978.34
2022-11-05T12:25:59.687Z,99960.94
2022-11-05T12:28:29.488Z,99968.63
2022-11-05T12:31:16.293Z,99971.50
2022-11-05T12:34:00.560Z,99964.97
2022-11-05T12:36:59.383Z,99969.38
2022-11-05T12:39:52.962Z,99969.38
2022-11-05T12:42:37.716Z,99974.09
2022-11-05T12:45:33.136Z,99975.31
2022-11-05T12:48:16.846Z,99967.81
2022-11-05T12:50:49.847Z,99982.53
2022-11-05T12:53:41.106Z,99978.78
2022-11-05T12:56:18.940Z,99983.59
2022-11-05T12:59:00.431Z,99989.88
2022-11-05T13:01:37.221Z,99965.13
2022-11-05T13:04:18.120Z,99990.78
2022-11-05T13:06:49.944Z,99997.28
2022-11-05T13:09:32.434Z,100001.91
2022-11-05T13:12:07.491Z,100002.06
2022-11-05T13:14:57.617Z,99986.84
2022-11-05T13:17:32.737Z,99997.31
2022-11-05T13:20:17.161Z,100006.72
2022-11-05T13:22:48.088Z,100017.31
2022-11-05T13:25:28.270Z,100011.06
2022-11-05T13:28:23.872Z,100011.19
2022-11-05T13:31:01.615Z,100009.22
2022-11-05T13:33:40.666Z,100012.22
2022-11-05T13:36:32.745Z,100016.59
2022-11-05T13:39:13.272Z,100016.87
2022-11-05T13:42:17.868Z,100017.06
2022-11-05T13:45:03.106Z,100017.38
2022-11-05T13:47:52.337Z,100022.94
2022-11-05T13:50:25.449Z,100023.75
2022-11-05T13:53:11.349Z,100020.56
2022-11-05T13:55:51.011Z,100031.53
2022-11-05T13:58:52.806Z,100028.31
2022-11-05T14:01:39.229Z,100036.28
2022-11-05T14:04:14.175Z,100034.59
2022-11-05T14:06:42.235Z,100039.22
2022-11-05T14:09:17.847Z,100041.88
2022-11-05T14:11:52.461Z,100032.41
2022-11-05T14:14:25.668Z,100037.66
2022-11-05T14:17:14.261Z,100033.63
2022-11-05T14:20:04.514Z,100050.25
2022-11-05T14:22:32.181Z,100048.59
2022-11-05T14:25:22.732Z,100054.00
2022-11-05T14:27:52.590Z,100054.19
2022-11-05T14:30:47.535Z,100062.16
2022-11-05T14:33:31.456Z,100032.38
2022-11-05T14:36:20.581Z,100054.28
2022-11-05T14:38:53.761Z,100064.09
2022-11-05T14:41:21.931Z,100059.69
2022-11-05T14:44:07.483Z,100066.00
2022-11-05T14:46:48.012Z,100078.47
2022-11-05T14:49:22.753Z,100033.87
2022-11-05T14:51:52.912Z,100081.16
2022-11-05T14:54:31.002Z,100085.63
2022-11-05T14:57:02.200Z,100086.56
2022-11-05T14:59:31.659Z,100086.59
2022-11-05T15:02:12.133Z,100083.97
2022-11-05T15:04:43.608Z,100092.91
2022-11-05T15:07:11.587Z,100097.31
2022-11-05T15:09:54.682Z,100100.00
2022-11-05T15:12:50.904Z,100108.03
2022-11-05T15:15:29.150Z,100101.06
2022-11-05T15:18:23.868Z,100100.25
2022-11-05T15:20:57.307Z,100112.69
2022-11-05T15:23:30.514Z,100111.87
2022-11-05T15:26:26.201Z,100103.91
2022-11-05T15:28:55.265Z,100103.06
2022-11-05T15:31:37.019Z,100114.63
2022-11-05T15:34:18.947Z,100113.03
2022-11-05T15:36:57.668Z,100121.16
2022-11-05T15:39:33.978Z,100119.44
2022-11-05T15:42:05.210Z,100125.78
2022-11-05T15:44:40.156Z,100127.72
2022-11-05T15:47:21.166Z,100133.81
2022-11-05T15:49:53.306Z,100136.66
2022-11-05T15:52:24.345Z,100135.91
2022-11-05T15:55:10.753Z,100139.44
2022-11-05T15:57:47.845Z,100136.06
2022-11-05T16:00:26.070Z,100134.31
2022-11-05T16:03:04.963Z,100146.72
2022-11-05T16:05:43.473Z,100146.78
2022-11-05T16:08:17.455Z,100146.91
2022-11-05T16:10:49.948Z,100146.91
2022-11-05T16:13:30.452Z,100134.75
2022-11-05T16:16:02.052Z,100144.38
2022-11-05T16:18:38.898Z,100134.72
2022-11-05T16:21:09.885Z,100152.34
2022-11-05T16:23:49.959Z,100159.53
2022-11-05T16:26:55.759Z,100160.47
2022-11-05T16:29:23.592Z,100170.28
2022-11-05T16:31:54.048Z,100173.19
2022-11-05T16:34:40.532Z,100178.53
2022-11-05T16:37:13.790Z,100185.63
2022-11-05T16:39:41.948Z,100174.28
2022-11-05T16:42:26.515Z,100180.44
2022-11-05T16:44:55.412Z,100195.47
2022-11-05T16:47:22.977Z,100199.16
2022-11-05T16:49:51.332Z,100182.59
2022-11-05T16:52:19.366Z,100201.81
2022-11-05T16:54:47.000Z,100189.69
2022-11-05T16:57:27.534Z,100212.59
2022-11-05T17:00:00.476Z,100190.84
2022-11-05T17:02:31.701Z,100222.44
2022-11-05T17:04:59.808Z,100213.66
2022-11-05T17:07:28.783Z,100222.59
2022-11-05T17:09:56.323Z,100212.91
2022-11-05T17:12:24.378Z,100205.12
2022-11-05T17:14:51.756Z,100222.72
2022-11-05T17:17:19.081Z,100223.63
2022-11-05T17:19:47.479Z,100216.69
2022-11-05T17:22:15.356Z,100220.25
2022-11-05T17:24:43.754Z,100205.47
2022-11-05T17:27:15.167Z,100214.28
2022-11-05T17:29:43.478Z,100231.00
2022-11-05T17:32:11.233Z,100208.31
2022-11-05T17:34:40.827Z,100219.72
2022-11-05T17:37:08.321Z,100244.34
2022-11-05T17:39:36.469Z,100249.69
2022-11-05T17:42:07.436Z,100248.00
2022-11-05T17:44:35.142Z,100247.94
2022-11-05T17:47:03.022Z,100258.63
2022-11-05T17:49:31.802Z,100255.13
2022-11-05T17:51:59.775Z,100264.03
2022-11-05T17:54:27.407Z,100257.84
2022-11-05T17:56:55.491Z,100257.91
2022-11-05T17:59:24.484Z,100274.63
2022-11-05T18:01:52.817Z,100267.59
2022-11-05T18:04:20.628Z,100272.97
2022-11-05T18:06:52.397Z,100277.41
2022-11-05T18:09:20.867Z,100273.84
2022-11-05T18:11:48.705Z,100277.44
2022-11-05T18:14:22.777Z,100280.97
2022-11-05T18:16:55.491Z,100282.78
2022-11-05T18:19:24.599Z,100281.03
2022-11-05T18:21:53.800Z,100270.56
2022-11-05T18:24:22.488Z,100288.97
2022-11-05T18:26:50.723Z,100288.91
2022-11-05T18:29:18.460Z,100296.06
2022-11-05T18:31:47.263Z,100290.81
2022-11-05T18:34:16.572Z,100283.84
2022-11-05T18:36:53.479Z,100304.09
2022-11-05T18:39:24.534Z,100280.41
2022-11-05T18:41:52.102Z,100305.91
2022-11-05T18:44:23.165Z,100306.78
2022-11-05T18:46:58.016Z,100320.00
2022-11-05T18:49:28.607Z,100324.44
2022-11-05T18:51:57.913Z,100325.34
2022-11-05T18:54:26.158Z,100325.34
2022-11-05T18:56:53.996Z,100330.69
2022-11-05T18:59:36.875Z,100326.25
2022-11-05T19:02:08.241Z,100321.06
2022-11-05T19:04:43.835Z,100321.09
2022-11-05T19:07:24.049Z,100332.53
2022-11-05T19:09:53.177Z,100342.22
2022-11-05T19:12:22.798Z,100347.50
2022-11-05T19:14:50.779Z,100344.91
2022-11-05T19:17:18.597Z,100346.66
2022-11-05T19:19:47.482Z,100354.63
2022-11-05T19:22:15.378Z,100364.31
2022-11-05T19:24:43.697Z,100365.19
2022-11-05T19:27:13.031Z,100364.31
2022-11-05T19:29:41.842Z,100378.44
2022-11-05T19:32:09.695Z,100370.50
2022-11-05T19:34:37.462Z,100376.63
2022-11-05T19:37:08.501Z,100381.94
2022-11-05T19:39:36.963Z,100383.75
2022-11-05T19:42:06.136Z,100381.97
2022-11-05T19:44:34.546Z,100382.81
2022-11-05T19:47:03.481Z,100390.78
2022-11-05T19:49:31.781Z,100366.19
2022-11-05T19:51:59.557Z,100386.31
2022-11-05T19:54:27.090Z,100393.34
2022-11-05T19:56:54.666Z,100394.28
2022-11-05T19:59:22.130Z,100409.25
2022-11-05T20:01:50.284Z,100411.88
2022-11-05T20:04:18.443Z,100410.16
2022-11-05T20:06:48.084Z,100408.41
2022-11-05T20:09:23.477Z,100422.47
2022-11-05T20:11:54.867Z,100416.34
2022-11-05T20:14:24.900Z,100423.37
2022-11-05T20:16:53.694Z,100419.03
2022-11-05T20:19:23.183Z,100423.37
2022-11-05T20:21:51.638Z,100428.69
2022-11-05T20:24:25.340Z,100429.50
2022-11-05T20:26:55.867Z,100429.59
2022-11-05T20:29:35.283Z,100421.72
2022-11-05T20:32:05.713Z,100430.44
2022-11-05T20:34:35.801Z,100448.13
2022-11-05T20:37:03.547Z,100443.69
2022-11-05T20:39:32.679Z,100450.72
2022-11-05T20:42:01.147Z,100452.53
2022-11-05T20:44:29.391Z,100456.06
2022-11-05T20:46:57.290Z,100456.97
2022-11-05T20:49:25.789Z,100436.75
2022-11-05T20:51:54.296Z,100457.78
2022-11-05T20:54:22.403Z,100463.09
2022-11-05T20:56:50.418Z,100465.75
2022-11-05T20:59:19.360Z,100469.28
2022-11-05T21:01:47.670Z,100468.41
2022-11-05T21:04:15.338Z,100471.03
2022-11-05T21:06:43.611Z,100464.88
2022-11-05T21:09:11.525Z,100467.53
2022-11-05T21:11:57.973Z,100468.38
2022-11-05T21:14:26.221Z,100469.31
2022-11-05T21:16:53.826Z,100463.13
2022-11-05T21:19:24.337Z,100471.94
2022-11-05T21:21:51.761Z,100470.19
2022-11-05T21:24:19.513Z,100471.97
2022-11-05T21:26:47.299Z,100477.22
2022-11-05T21:29:15.096Z,100479.00
2022-11-05T21:31:43.000Z,100478.97
2022-11-05T21:34:11.673Z,100472.88
2022-11-05T21:36:40.724Z,100474.59
2022-11-05T21:39:13.198Z,100476.31
2022-11-05T21:41:42.822Z,100464.97
2022-11-05T21:44:10.614Z,100471.13
2022-11-05T21:46:38.097Z,100476.38
2022-11-05T21:49:05.161Z,100481.66
2022-11-05T21:51:50.896Z,100476.38
2022-11-05T21:54:36.744Z,100477.22
2022-11-05T21:57:22.474Z,100474.59
2022-11-05T21:59:49.912Z,100479.88
2022-11-05T22:02:19.576Z,100462.38
2022-11-05T22:04:52.541Z,100480.75
2022-11-05T22:07:22.987Z,100479.00
2022-11-05T22:09:50.131Z,100480.75
2022-11-05T22:12:17.144Z,100480.75
2022-11-05T22:14:44.125Z,100484.31
2022-11-05T22:17:12.701Z,100476.41
2022-11-05T22:19:39.724Z,100474.66
2022-11-05T22:22:06.864Z,100476.38
2022-11-05T22:24:34.600Z,100483.41
2022-11-05T22:27:05.465Z,100477.25
2022-11-05T22:29:32.476Z,100485.22
2022-11-05T22:31:59.354Z,100484.31
2022-11-05T22:34:26.345Z,100484.37
2022-11-05T22:36:53.724Z,100488.75
2022-11-05T22:39:21.123Z,100480.78
2022-11-05T22:41:48.190Z,100484.34
2022-11-05T22:44:16.737Z,100483.44
2022-11-05T22:46:44.078Z,100479.97
2022-11-05T22:49:11.309Z,100489.62
2022-11-05T22:51:39.324Z,100479.97
2022-11-05T22:54:07.513Z,100490.50
2022-11-05T22:56:37.420Z,100489.62
2022-11-05T22:59:05.611Z,100480.81
2022-11-05T23:01:32.980Z,100489.62
2022-11-05T23:04:00.269Z,100486.09
2022-11-05T23:06:49.184Z,100491.41
2022-11-05T23:09:50.030Z,100487.84
2022-11-05T23:12:28.953Z,100491.41
2022-11-05T23:14:58.473Z,100484.34
2022-11-05T23:17:44.721Z,100483.53
2022-11-05T23:20:37.168Z,100489.66
2022-11-05T23:23:24.658Z,100488.75
2022-11-05T23:25:57.629Z,100494.94
2022-11-05T23:28:24.733Z,100497.56
2022-11-05T23:31:09.853Z,100498.44
2022-11-05T23:33:36.978Z,100508.16
2022-11-05T23:36:22.505Z,100502.91
2022-11-05T23:38:49.278Z,100505.53
2022-11-05T23:41:34.557Z,100509.09
2022-11-05T23:44:20.040Z,100516.13
2022-11-05T23:47:05.178Z,100517.91
2022-11-05T23:49:32.194Z,100520.56
2022-11-05T23:51:59.232Z,100518.81
2022-11-05T23:54:26.365Z,100517.91
2022-11-05T23:56:53.212Z,100518.81
2022-11-05T23:59:20.122Z,100518.78
